createdAt,value
2022-11-12T00:02:37.201Z,54.8
2022-11-12T00:04:38.410Z,57.9
2022-11-12T00:06:39.644Z,47.4
2022-11-12T00:10:45.281Z,56.3
2022-11-12T00:12:46.465Z,55.9
2022-11-12T00:15:14.862Z,62.4
2022-11-12T00:17:16.065Z,58.2
2022-11-12T00:19:17.248Z,68.3
2022-11-12T00:21:21.698Z,57.1
2022-11-12T00:23:22.890Z,62.4
2022-11-12T00:25:24.128Z,51.7
2022-11-12T00:27:25.331Z,62.8
2022-11-12T00:29:26.533Z,57.3
2022-11-12T00:31:27.727Z,55.6
2022-11-12T00:33:28.919Z,46.8
2022-11-12T00:35:33.414Z,61.7
2022-11-12T00:37:34.592Z,59.3
2022-11-12T00:39:35.792Z,49.5
2022-11-12T00:41:36.974Z,53
2022-11-12T00:43:38.177Z,50.4
2022-11-12T00:45:39.347Z,55.2
2022-11-12T00:47:40.570Z,46.4
2022-11-12T00:49:45.023Z,53.6
2022-11-12T00:51:46.236Z,60.6
2022-11-12T00:53:47.416Z,55.8
2022-11-12T00:57:49.847Z,52.9
2022-11-12T00:59:51.030Z,54.8
2022-11-12T01:05:57.922Z,47.4
2022-11-12T01:07:59.110Z,65.5
2022-11-12T01:09:01.371Z,52.8
2022-11-12T01:11:02.561Z,55.2
2022-11-12T01:15:04.957Z,58.4
2022-11-12T01:17:09.441Z,57
2022-11-12T01:19:10.602Z,57.4
2022-11-12T01:21:11.789Z,47.5
2022-11-12T01:23:12.988Z,51.6
2022-11-12T01:25:14.170Z,51.9
2022-11-12T01:27:15.364Z,61.8
2022-11-12T01:29:16.586Z,66.7
2022-11-12T01:31:21.026Z,44.8
2022-11-12T01:33:22.220Z,52.7
2022-11-12T01:35:23.428Z,53
2022-11-12T01:39:25.804Z,53.3
2022-11-12T01:45:32.668Z,51.1
2022-11-12T01:47:33.861Z,61.8
2022-11-12T01:49:35.054Z,50.3
2022-11-12T01:51:36.253Z,49
2022-11-12T01:55:38.645Z,58.5
2022-11-12T01:57:39.817Z,43.5
2022-11-12T01:59:44.261Z,49.9
2022-11-12T02:01:45.465Z,58.4
2022-11-12T02:06:50.177Z,45.3
2022-11-12T02:08:51.286Z,63.3
2022-11-12T02:10:52.509Z,58.5
2022-11-12T02:12:56.948Z,47.5
2022-11-12T02:14:58.157Z,50.1
2022-11-12T02:16:59.351Z,56.8
2022-11-12T02:19:00.567Z,53.6
2022-11-12T02:21:01.771Z,56.2
2022-11-12T02:23:02.956Z,49
2022-11-12T02:25:04.191Z,50.5
2022-11-12T02:29:09.819Z,53.8
2022-11-12T02:31:11.056Z,52.7
2022-11-12T02:33:12.209Z,57.7
2022-11-12T02:35:13.869Z,54.3
2022-11-12T02:37:15.050Z,56.8
2022-11-12T02:39:16.248Z,55.1
2022-11-12T02:41:20.720Z,57.2
2022-11-12T02:43:21.888Z,60.7
2022-11-12T02:45:23.095Z,53.7
2022-11-12T02:47:24.296Z,49.2
2022-11-12T02:51:26.675Z,62.7
2022-11-12T02:53:27.903Z,52.8
2022-11-12T02:55:32.341Z,51.8
2022-11-12T02:59:34.761Z,55.9
2022-11-12T03:02:38.156Z,55
2022-11-12T03:04:39.348Z,53.6
2022-11-12T03:06:40.657Z,46.9
2022-11-12T03:08:45.009Z,45.2
2022-11-12T03:10:46.181Z,48.4
2022-11-12T03:12:47.397Z,60.7
2022-11-12T03:14:48.591Z,48.6
2022-11-12T03:16:49.782Z,48.2
2022-11-12T03:18:50.988Z,50.6
2022-11-12T03:20:52.163Z,62
2022-11-12T03:22:56.581Z,52.5
2022-11-12T03:24:57.779Z,49.7
2022-11-12T03:26:58.996Z,50.2
2022-11-12T03:29:00.185Z,50.1
2022-11-12T03:31:01.388Z,46.9
2022-11-12T03:33:02.548Z,54.6
2022-11-12T03:35:03.777Z,55
2022-11-12T03:37:08.175Z,55.4
2022-11-12T03:39:09.398Z,55.5
2022-11-12T03:41:10.588Z,48.1
2022-11-12T03:43:11.801Z,54.7
2022-11-12T03:45:12.996Z,54
2022-11-12T03:47:14.201Z,58.6
2022-11-12T03:49:15.370Z,47.5
2022-11-12T03:51:19.844Z,50.1
2022-11-12T03:53:21.024Z,51.5
2022-11-12T03:57:44.820Z,52.1
2022-11-12T03:59:46.012Z,52.7
2022-11-12T04:01:47.202Z,57.8
2022-11-12T04:03:51.670Z,53.1
2022-11-12T04:05:52.867Z,54.3
2022-11-12T04:07:54.036Z,51.2
2022-11-12T04:09:55.230Z,59.2
2022-11-12T04:11:56.423Z,49.3
2022-11-12T04:13:57.618Z,62.7
2022-11-12T04:15:58.820Z,60.6
2022-11-12T04:18:03.542Z,58.8
2022-11-12T04:20:04.729Z,60.6
2022-11-12T04:22:05.935Z,52.8
2022-11-12T04:24:07.111Z,52.4
2022-11-12T04:30:10.655Z,51.7
2022-11-12T04:32:15.064Z,56.5
2022-11-12T04:34:17.793Z,47.4
2022-11-12T04:36:18.937Z,56.4
2022-11-12T04:38:20.154Z,56.3
2022-11-12T04:44:23.652Z,48.4
2022-11-12T04:48:29.636Z,53.1
2022-11-12T04:50:30.466Z,53.4
2022-11-12T04:51:32.718Z,49.6
2022-11-12T04:53:33.900Z,59.1
2022-11-12T04:55:35.057Z,52.6
2022-11-12T04:57:36.215Z,55.3
2022-11-12T04:59:40.690Z,62.4
2022-11-12T05:01:41.957Z,56.7
2022-11-12T05:03:43.043Z,54
2022-11-12T05:05:44.240Z,54.4
2022-11-12T05:07:45.409Z,66.5
2022-11-12T05:09:46.577Z,55.8
2022-11-12T05:11:47.751Z,53
2022-11-12T05:15:53.386Z,54.6
2022-11-12T05:17:54.570Z,55.9
2022-11-12T05:21:56.967Z,52.1
2022-11-12T05:23:58.219Z,51.6
2022-11-12T05:25:59.370Z,55.2
2022-11-12T05:28:05.651Z,46.8
2022-11-12T05:30:05.006Z,52.2
2022-11-12T05:32:06.187Z,53.1
2022-11-12T05:34:07.386Z,49.2
2022-11-12T05:36:08.679Z,56.9
2022-11-12T05:38:09.754Z,55.3
2022-11-12T05:40:10.927Z,46.3
2022-11-12T05:42:15.366Z,40.7
2022-11-12T05:44:16.525Z,55.8
2022-11-12T05:46:17.702Z,49.4
2022-11-12T05:47:19.941Z,51.6
2022-11-12T05:49:21.126Z,54.9
2022-11-12T05:51:22.330Z,40.2
2022-11-12T05:53:23.521Z,41.4
2022-11-12T05:55:28.232Z,42.7
2022-11-12T05:57:29.119Z,50.6
2022-11-12T05:59:30.290Z,42
2022-11-12T06:05:33.821Z,40.8
2022-11-12T06:11:40.617Z,45.9
2022-11-12T06:15:42.978Z,41
2022-11-12T06:17:44.168Z,36.7
2022-11-12T06:19:45.319Z,51.2
2022-11-12T06:27:53.273Z,49.6
2022-11-12T06:29:54.476Z,45.9
2022-11-12T06:31:55.646Z,44.4
2022-11-12T06:33:56.790Z,43
2022-11-12T06:35:57.981Z,49.4
2022-11-12T06:38:02.318Z,57.1
2022-11-12T06:40:03.504Z,43.5
2022-11-12T06:42:04.710Z,50
2022-11-12T06:43:06.925Z,46.4
2022-11-12T06:45:08.109Z,41.5
2022-11-12T06:47:09.276Z,51
2022-11-12T06:51:14.912Z,46.8
2022-11-12T06:53:16.145Z,42.6
2022-11-12T06:55:17.259Z,45.3
2022-11-12T07:03:21.950Z,54.5
2022-11-12T07:05:26.384Z,50.2
2022-11-12T07:07:27.569Z,55.5
2022-11-12T07:09:28.715Z,52.1
2022-11-12T07:11:29.857Z,43.5
2022-11-12T07:13:31.042Z,50.4
2022-11-12T07:17:33.414Z,57.3
2022-11-12T07:19:37.852Z,49
2022-11-12T07:29:48.063Z,54.8
2022-11-12T07:31:44.872Z,56.3
2022-11-12T07:33:49.325Z,43.5
2022-11-12T07:35:50.519Z,55.6
2022-11-12T07:37:53.703Z,49.8
2022-11-12T07:42:21.324Z,125.4
2022-11-12T07:44:22.491Z,69.9
2022-11-12T07:52:30.483Z,163.2
2022-11-12T07:54:31.616Z,79.7
2022-11-12T07:56:32.857Z,65.5
2022-11-12T08:08:43.201Z,60.6
2022-11-12T08:10:44.408Z,56.9
2022-11-12T08:12:45.598Z,45
2022-11-12T08:14:50.053Z,50.7
2022-11-12T08:16:51.261Z,55.7
2022-11-12T08:18:52.471Z,45.3
2022-11-12T08:20:53.665Z,46.2
2022-11-12T08:22:54.938Z,46.7
2022-11-12T08:24:56.041Z,48.5
2022-11-12T08:26:57.224Z,43
2022-11-12T08:29:05.421Z,49.7
2022-11-12T08:31:02.905Z,51.3
2022-11-12T08:33:04.103Z,47.4
2022-11-12T08:34:06.341Z,44.7
2022-11-12T08:36:07.558Z,37.7
2022-11-12T08:38:08.758Z,51.1
2022-11-12T08:40:09.950Z,47.2
2022-11-12T08:42:14.425Z,41.8
2022-11-12T08:44:15.635Z,47.7
2022-11-12T08:46:16.830Z,32.5
2022-11-12T08:52:20.443Z,41.2
2022-11-12T09:02:29.689Z,35.9
2022-11-12T09:04:30.887Z,40.7
2022-11-12T09:06:32.135Z,36.5
2022-11-12T09:08:33.317Z,45.2
2022-11-12T09:10:37.764Z,39.3
2022-11-12T09:12:38.989Z,34.8
2022-11-12T09:14:40.179Z,38.3
2022-11-12T09:16:41.386Z,33.1
2022-11-12T09:18:42.614Z,26.8
2022-11-12T09:20:43.813Z,32.9
2022-11-12T09:22:45.037Z,23.3
2022-11-12T09:24:49.516Z,38.8
2022-11-12T09:26:50.717Z,27.6
2022-11-12T09:28:51.934Z,24.6
2022-11-12T09:29:54.178Z,23.8
2022-11-12T09:31:55.393Z,23.2
2022-11-12T09:33:56.621Z,20.3
2022-11-12T09:35:57.845Z,20
2022-11-12T09:38:02.343Z,18.3
2022-11-12T09:40:03.561Z,19.1
2022-11-12T09:42:04.787Z,23.5
2022-11-12T09:44:06.002Z,24
2022-11-12T09:46:26.582Z,18.7
2022-11-12T09:48:08.479Z,15.3
2022-11-12T09:50:09.715Z,39.3
2022-11-12T09:54:15.467Z,17.8
2022-11-12T09:56:16.696Z,14.2
2022-11-12T09:58:17.933Z,26.6
2022-11-12T10:00:19.169Z,13.6
2022-11-12T10:02:20.420Z,17.6
2022-11-12T10:04:21.655Z,21.4
2022-11-12T10:06:26.154Z,17.5
2022-11-12T10:08:27.605Z,12.8
2022-11-12T10:10:28.664Z,15.6
2022-11-12T10:12:29.913Z,14.4
2022-11-12T10:14:31.166Z,16.5
2022-11-12T10:20:38.910Z,15.1
2022-11-12T10:22:39.324Z,27.8
2022-11-12T10:24:42.128Z,15.5
2022-11-12T10:25:44.325Z,17.6
2022-11-12T10:27:45.566Z,21.1
2022-11-12T10:29:46.684Z,23.1
2022-11-12T10:31:47.881Z,16.6
2022-11-12T10:33:52.131Z,15.2
2022-11-12T10:35:53.266Z,13.7
2022-11-12T10:39:55.554Z,17
2022-11-12T10:41:56.675Z,15.3
2022-11-12T10:43:57.816Z,12.6
2022-11-12T10:45:58.952Z,19.1
2022-11-12T10:48:03.262Z,19.4
2022-11-12T10:54:06.669Z,30.7
2022-11-12T10:56:07.815Z,30.7
2022-11-12T10:58:08.938Z,15.8
2022-11-12T11:00:10.061Z,18.4
2022-11-12T11:06:16.736Z,16.6
2022-11-12T11:10:18.872Z,16.6
2022-11-12T11:16:25.435Z,29.1
2022-11-12T11:18:26.843Z,20
2022-11-12T11:20:27.686Z,15
2022-11-12T11:22:55.759Z,12.5
2022-11-12T11:24:56.883Z,14.5
2022-11-12T11:26:58.014Z,14.8
2022-11-12T11:29:02.319Z,15.4
2022-11-12T11:31:03.424Z,16.9
2022-11-12T11:37:06.863Z,16.5
2022-11-12T11:39:08.019Z,33.1
2022-11-12T11:41:09.135Z,21.2
2022-11-12T11:43:13.436Z,38.4
2022-11-12T11:45:14.563Z,23.7
2022-11-12T11:47:15.682Z,37.7
2022-11-12T11:49:16.845Z,15
2022-11-12T11:51:22.108Z,15.7
2022-11-12T11:53:19.091Z,17.6
2022-11-12T11:55:20.255Z,19.1
2022-11-12T12:01:26.808Z,17.1
2022-11-12T12:03:32.596Z,61.1
2022-11-12T12:05:29.040Z,121.7
2022-11-12T12:07:30.170Z,41.4
2022-11-12T12:09:31.295Z,98.4
2022-11-12T12:11:35.588Z,21.8
2022-11-12T12:13:36.752Z,39.1
2022-11-12T12:15:37.876Z,53.9
2022-11-12T12:16:39.991Z,32.9
2022-11-12T12:18:41.133Z,21.2
2022-11-12T12:24:47.767Z,17.7
2022-11-12T12:26:48.844Z,20.8
2022-11-12T12:28:49.988Z,16.7
2022-11-12T12:30:51.103Z,14.5
2022-11-12T12:34:53.385Z,39.4
2022-11-12T12:36:54.606Z,57.4
2022-11-12T12:38:58.917Z,33.2
2022-11-12T12:41:00.048Z,113.1
2022-11-12T12:43:01.156Z,35.2
2022-11-12T12:47:03.422Z,69.3
2022-11-12T12:49:04.568Z,26.6
2022-11-12T12:51:05.686Z,49.1
2022-11-12T12:53:09.972Z,30.8
2022-11-12T12:55:11.116Z,47.3
2022-11-12T12:57:12.227Z,79.6
2022-11-12T12:59:13.341Z,76
2022-11-12T13:01:14.580Z,66.5
2022-11-12T13:05:16.756Z,37.3
2022-11-12T13:07:21.184Z,18.4
2022-11-12T13:09:22.194Z,50.2
2022-11-12T13:11:23.963Z,13.6
2022-11-12T13:14:27.222Z,12.2
2022-11-12T13:16:28.333Z,30.3
2022-11-12T13:18:29.600Z,9.7
2022-11-12T13:24:36.088Z,15.7
2022-11-12T13:26:37.172Z,16.4
2022-11-12T13:28:38.315Z,16.2
2022-11-12T13:30:39.446Z,28.9
2022-11-12T13:32:40.588Z,19.2
2022-11-12T13:34:44.872Z,44.2
2022-11-12T13:36:46.005Z,23.4
2022-11-12T13:38:47.165Z,44.2
2022-11-12T13:40:48.366Z,25
2022-11-12T13:44:55.832Z,26.7
2022-11-12T13:46:51.780Z,52.4
2022-11-12T13:48:56.094Z,34.4
2022-11-12T13:50:57.190Z,32.6
2022-11-12T13:52:58.338Z,31.5
2022-11-12T13:54:59.456Z,105.8
2022-11-12T13:57:00.588Z,39.2
2022-11-12T13:59:01.794Z,51.8
2022-11-12T14:01:02.986Z,25.2
2022-11-12T14:03:07.147Z,18.1
2022-11-12T14:05:08.288Z,17
2022-11-12T14:07:09.463Z,13.7
2022-11-12T14:08:11.578Z,15.6
2022-11-12T14:10:12.697Z,79.1
2022-11-12T14:12:13.825Z,45.6
2022-11-12T14:14:14.953Z,60.7
2022-11-12T14:16:19.288Z,60.3
2022-11-12T14:18:20.440Z,75
2022-11-12T14:20:21.562Z,56.6
2022-11-12T14:22:22.699Z,28.3
2022-11-12T14:24:23.824Z,35.9
2022-11-12T14:26:24.939Z,28.3
2022-11-12T14:28:26.354Z,22
2022-11-12T14:30:30.384Z,70.6
2022-11-12T14:32:31.517Z,42.1
2022-11-12T14:34:32.659Z,47.3
2022-11-12T14:36:33.816Z,27.1
2022-11-12T14:38:34.942Z,34.6
2022-11-12T14:40:36.097Z,33.6
2022-11-12T14:42:37.214Z,35.9
2022-11-12T14:44:41.505Z,20.9
2022-11-12T14:46:42.636Z,35.3
2022-11-12T14:48:43.752Z,30.6
2022-11-12T14:50:49.555Z,47.2
2022-11-12T14:52:46.000Z,79
2022-11-12T14:54:47.145Z,34
2022-11-12T14:56:48.262Z,18.1
2022-11-12T14:58:52.542Z,34.3
2022-11-12T15:05:22.900Z,50
2022-11-12T15:07:24.051Z,49.7
2022-11-12T15:09:25.203Z,38
2022-11-12T15:11:29.500Z,14.7
2022-11-12T15:19:34.023Z,18.5
2022-11-12T15:25:40.743Z,29.4
2022-11-12T15:27:41.823Z,23.7
2022-11-12T15:29:42.952Z,31.4
2022-11-12T15:31:44.107Z,24.3
2022-11-12T15:33:45.255Z,28.5
2022-11-12T15:35:46.395Z,33.8
2022-11-12T15:37:47.507Z,27.2
2022-11-12T15:39:51.926Z,32.1
2022-11-12T15:47:56.802Z,32.4
2022-11-12T15:49:58.049Z,24.2
2022-11-12T15:51:59.301Z,24.4
2022-11-12T15:59:08.571Z,37.8
2022-11-12T16:01:09.884Z,27.6
2022-11-12T16:03:11.077Z,68.5
2022-11-12T16:05:12.300Z,70.2
2022-11-12T16:07:16.845Z,45.6
2022-11-12T16:09:18.060Z,36.3
2022-11-12T16:11:19.319Z,61.9
2022-11-12T16:13:22.076Z,24.3
2022-11-12T16:15:23.275Z,25.5
2022-11-12T16:17:24.534Z,41.4
2022-11-12T16:19:25.791Z,32.9
2022-11-12T16:25:32.810Z,29.5
2022-11-12T16:27:34.053Z,37.7
2022-11-12T16:29:35.312Z,23.7
2022-11-12T16:31:36.527Z,30
2022-11-12T16:33:37.790Z,31
2022-11-12T16:35:42.496Z,24.3
2022-11-12T16:37:43.545Z,93.5
2022-11-12T16:39:44.815Z,40.3
2022-11-12T16:43:47.288Z,27.1
2022-11-12T16:45:48.548Z,22.2
2022-11-12T16:47:49.831Z,21.4
2022-11-12T16:49:54.300Z,20.6
2022-11-12T16:51:55.530Z,28
2022-11-12T16:55:04.347Z,34.2
2022-11-12T16:57:00.288Z,48.4
2022-11-12T16:59:01.527Z,32.2
2022-11-12T17:01:02.793Z,37.5
2022-11-12T17:03:07.266Z,39.8
2022-11-12T17:05:08.515Z,47.4
2022-11-12T17:07:09.808Z,49.6
2022-11-12T17:09:11.017Z,42.3
2022-11-12T17:11:12.247Z,38.5
2022-11-12T17:13:13.485Z,37.7
2022-11-12T17:15:14.716Z,48.1
2022-11-12T17:17:19.218Z,43.3
2022-11-12T17:19:20.440Z,39.2
2022-11-12T17:21:21.685Z,101.5
2022-11-12T17:23:22.917Z,57.5
2022-11-12T17:25:24.163Z,47.4
2022-11-12T17:27:25.373Z,44.2
2022-11-12T17:33:32.376Z,45.4
2022-11-12T17:37:34.851Z,63.3
2022-11-12T17:39:36.090Z,64.5
2022-11-12T17:41:37.298Z,69.7
2022-11-12T17:43:38.534Z,62.6
2022-11-12T17:47:44.270Z,72.6
2022-11-12T17:49:45.507Z,54.5
2022-11-12T17:50:47.950Z,49
2022-11-12T17:52:49.017Z,36.7
2022-11-12T17:54:50.251Z,60
2022-11-12T17:56:51.483Z,42.4
2022-11-12T17:58:55.977Z,63.9
2022-11-12T18:00:57.340Z,71.5
2022-11-12T18:09:02.180Z,91.1
2022-11-12T18:11:03.394Z,78.1
2022-11-12T18:13:07.877Z,65.1
2022-11-12T18:29:20.953Z,61.8
2022-11-12T18:31:22.171Z,77.3
2022-11-12T18:33:23.412Z,79.5
2022-11-12T18:35:27.263Z,83.8
2022-11-12T18:37:25.868Z,76.6
2022-11-12T18:39:27.094Z,73.6
2022-11-12T18:41:31.596Z,76.2
2022-11-12T18:43:32.800Z,75
2022-11-12T18:45:34.068Z,69.4
2022-11-12T18:50:08.423Z,70.6
2022-11-12T18:52:04.875Z,79.9
2022-11-12T18:54:09.387Z,79.1
2022-11-12T18:56:10.628Z,77.1
2022-11-12T18:58:11.833Z,73.5
2022-11-12T19:00:13.058Z,112.4
2022-11-12T19:02:14.345Z,93.5
2022-11-12T19:04:15.537Z,72.7
2022-11-12T19:06:16.768Z,86.6
2022-11-12T19:08:21.279Z,88.8
2022-11-12T19:10:22.465Z,83.5
2022-11-12T19:12:23.704Z,92.6
2022-11-12T19:14:24.935Z,105.7
2022-11-12T19:16:26.136Z,120
2022-11-12T19:18:27.694Z,141.6
2022-11-12T19:24:34.291Z,115.8
2022-11-12T19:28:36.757Z,136.4
2022-11-12T19:30:37.985Z,141.5
2022-11-12T19:32:39.227Z,106.5
2022-11-12T19:36:44.926Z,146.3
2022-11-12T19:38:46.156Z,148.1
2022-11-12T19:40:47.379Z,135
2022-11-12T19:41:49.595Z,120.4
2022-11-12T19:43:50.811Z,118.9
2022-11-12T19:45:52.062Z,123.2
2022-11-12T19:47:53.244Z,164
2022-11-12T19:49:57.734Z,108.2
2022-11-12T19:51:58.944Z,120.9
2022-11-12T19:54:00.177Z,153.7
2022-11-12T19:56:01.407Z,156.9
2022-11-12T20:00:03.862Z,123
2022-11-12T20:02:05.102Z,117.8
2022-11-12T20:04:09.533Z,121
2022-11-12T20:06:10.758Z,137.1
2022-11-12T20:10:13.172Z,118.4
2022-11-12T20:12:14.384Z,115.1
2022-11-12T20:14:15.624Z,131.7
2022-11-12T20:16:22.224Z,138.2
2022-11-12T20:20:22.518Z,120.6
2022-11-12T20:22:26.713Z,128.5
2022-11-12T20:24:24.939Z,124.6
2022-11-12T20:26:26.142Z,137.7
2022-11-12T20:28:27.359Z,122.2
2022-11-12T20:32:33.036Z,122.8
2022-11-12T20:34:34.249Z,125
2022-11-12T20:36:35.469Z,138
2022-11-12T20:37:37.688Z,145.6
2022-11-12T20:39:38.915Z,134.1
2022-11-12T20:41:40.146Z,153.5
2022-11-12T20:43:41.363Z,130.7
2022-11-12T20:45:45.789Z,129.4
2022-11-12T20:47:47.006Z,128.2
2022-11-12T20:49:48.230Z,138.4
2022-11-12T20:51:49.422Z,146
2022-11-12T20:53:54.563Z,128.7
2022-11-12T20:55:51.851Z,142.6
2022-11-12T20:57:53.064Z,117.4
2022-11-12T20:59:57.544Z,132.3
2022-11-12T21:01:58.777Z,137.3
2022-11-12T21:03:59.944Z,164.2
2022-11-12T21:06:01.182Z,145.2
2022-11-12T21:10:03.561Z,142.4
2022-11-12T21:12:04.782Z,155.8
2022-11-12T21:16:10.484Z,154.7
2022-11-12T21:18:11.701Z,170.5
2022-11-12T21:20:12.903Z,175.9
2022-11-12T21:22:14.108Z,138.2
2022-11-12T21:24:15.352Z,171.9
2022-11-12T21:26:16.540Z,192.9
2022-11-12T21:32:23.473Z,130.7
2022-11-12T21:33:25.658Z,132.4
2022-11-12T21:35:26.891Z,120.4
2022-11-12T21:37:28.120Z,146.1
2022-11-12T21:39:29.334Z,146.7
2022-11-12T21:41:33.826Z,143.8
2022-11-12T21:43:35.025Z,144.6
2022-11-12T21:45:36.235Z,129.5
2022-11-12T21:47:37.431Z,158.9
2022-11-12T21:49:38.652Z,137.6
2022-11-12T21:51:39.895Z,139
2022-11-12T21:53:41.092Z,136.2
2022-11-12T21:55:45.570Z,153.5
2022-11-12T21:57:46.767Z,140
2022-11-12T21:59:47.992Z,121
2022-11-12T22:01:49.184Z,140
2022-11-12T22:03:51.930Z,138.8
2022-11-12T22:05:53.104Z,135.5
2022-11-12T22:07:54.317Z,124.9
2022-11-12T22:09:58.775Z,124.2
2022-11-12T22:18:03.635Z,139.3
2022-11-12T22:20:04.836Z,118.2
2022-11-12T22:22:06.051Z,116.6
2022-11-12T22:24:10.519Z,140.9
2022-11-12T22:26:11.750Z,116.6
2022-11-12T22:30:41.367Z,121
2022-11-12T22:32:42.548Z,114
2022-11-12T22:34:48.329Z,105.8
2022-11-12T22:36:48.231Z,122.9
2022-11-12T22:38:49.467Z,133.4
2022-11-12T22:40:50.683Z,121.8
2022-11-12T22:42:51.855Z,143.2
2022-11-12T22:44:53.058Z,136.2
2022-11-12T22:46:54.294Z,115.4
2022-11-12T22:48:55.467Z,127.9
2022-11-12T22:50:59.964Z,115.5
2022-11-12T22:53:01.127Z,136.6
2022-11-12T22:55:02.330Z,139.9
2022-11-12T22:57:03.557Z,152.2
2022-11-12T22:59:04.895Z,111.3
2022-11-12T23:05:11.652Z,103.7
2022-11-12T23:09:14.053Z,97.9
2022-11-12T23:11:15.274Z,121.6
2022-11-12T23:15:17.721Z,100.6
2022-11-12T23:17:18.935Z,114.2
2022-11-12T23:19:23.402Z,106.7
2022-11-12T23:21:24.595Z,106.8
2022-11-12T23:23:25.799Z,128.7
2022-11-12T23:26:29.251Z,120.3
2022-11-12T23:28:30.700Z,108.4
2022-11-12T23:30:31.644Z,127.4
2022-11-12T23:32:36.084Z,105.8
2022-11-12T23:36:38.504Z,112.4
2022-11-12T23:40:40.947Z,121.3
2022-11-12T23:42:42.131Z,125.7
2022-11-12T23:44:43.331Z,100.1
2022-11-12T23:46:47.788Z,104.2
2022-11-12T23:48:48.994Z,103.2
2022-11-12T23:50:50.192Z,96
2022-11-12T23:52:51.394Z,91
2022-11-12T23:54:52.581Z,92.2
2022-11-12T23:56:53.802Z,95.4
2022-11-12T23:58:55.009Z,99.6
